sensor_id;sensor_type;location;lat;lon;timestamp;P1;durP1;ratioP1;P2;durP2;ratioP2
63394;SDS011;49531;-34.520;150.798;2023-05-16T00:00:23;1.90;;;1.80;;
63394;SDS011;49531;-34.520;150.798;2023-05-16T00:03:01;1.95;;;1.75;;
63394;SDS011;49531;-34.520;150.798;2023-05-16T00:05:29;2.78;;;1.92;;
63394;SDS011;49531;-34.520;150.798;2023-05-16T00:07:56;1.98;;;1.80;;
63394;SDS011;49531;-34.520;150.798;2023-05-16T00:10:26;3.47;;;1.95;;
63394;SDS011;49531;-34.520;150.798;2023-05-16T00:12:57;2.95;;;1.98;;
63394;SDS011;49531;-34.520;150.798;2023-05-16T00:15:26;2.50;;;2.03;;
63394;SDS011;49531;-34.520;150.798;2023-05-16T00:17:55;3.05;;;1.80;;
63394;SDS011;49531;-34.520;150.798;2023-05-16T00:20:24;2.88;;;1.80;;
63394;SDS011;49531;-34.520;150.798;2023-05-16T00:22:52;1.92;;;1.73;;
63394;SDS011;49531;-34.520;150.798;2023-05-16T00:25:20;2.47;;;1.90;;
63394;SDS011;49531;-34.520;150.798;2023-05-16T00:27:48;2.53;;;2.00;;
63394;SDS011;49531;-34.520;150.798;2023-05-16T00:30:15;3.03;;;2.15;;
63394;SDS011;49531;-34.520;150.798;2023-05-16T00:32:42;2.17;;;1.98;;
63394;SDS011;49531;-34.520;150.798;2023-05-16T00:35:09;2.38;;;2.05;;
63394;SDS011;49531;-34.520;150.798;2023-05-16T00:37:37;2.30;;;2.10;;
63394;SDS011;49531;-34.520;150.798;2023-05-16T00:40:04;3.60;;;2.28;;
63394;SDS011;49531;-34.520;150.798;2023-05-16T00:42:32;2.75;;;2.08;;
63394;SDS011;49531;-34.520;150.798;2023-05-16T00:44:59;2.47;;;2.00;;
63394;SDS011;49531;-34.520;150.798;2023-05-16T00:47:27;2.78;;;2.03;;
63394;SDS011;49531;-34.520;150.798;2023-05-16T00:49:54;2.65;;;1.92;;
63394;SDS011;49531;-34.520;150.798;2023-05-16T00:52:21;4.50;;;2.00;;
63394;SDS011;49531;-34.520;150.798;2023-05-16T00:54:50;2.72;;;2.03;;
63394;SDS011;49531;-34.520;150.798;2023-05-16T00:57:17;5.32;;;2.25;;
63394;SDS011;49531;-34.520;150.798;2023-05-16T00:59:45;2.85;;;2.22;;
63394;SDS011;49531;-34.520;150.798;2023-05-16T01:02:12;2.92;;;2.15;;
63394;SDS011;49531;-34.520;150.798;2023-05-16T01:04:40;2.47;;;2.10;;
63394;SDS011;49531;-34.520;150.798;2023-05-16T01:07:09;3.15;;;2.00;;
63394;SDS011;49531;-34.520;150.798;2023-05-16T01:09:36;2.20;;;2.00;;
63394;SDS011;49531;-34.520;150.798;2023-05-16T01:12:13;2.30;;;2.10;;
63394;SDS011;49531;-34.520;150.798;2023-05-16T01:17:41;2.20;;;2.00;;
63394;SDS011;49531;-34.520;150.798;2023-05-16T01:20:37;2.20;;;2.00;;
63394;SDS011;49531;-34.520;150.798;2023-05-16T01:23:19;2.88;;;2.10;;
63394;SDS011;49531;-34.520;150.798;2023-05-16T01:26:11;2.03;;;1.92;;
63394;SDS011;49531;-34.520;150.798;2023-05-16T01:28:43;2.63;;;2.30;;
63394;SDS011;49531;-34.520;150.798;2023-05-16T01:31:12;6.18;;;2.20;;
63394;SDS011;49531;-34.520;150.798;2023-05-16T01:33:40;2.47;;;2.10;;
63394;SDS011;49531;-34.520;150.798;2023-05-16T01:36:11;2.30;;;2.10;;
63394;SDS011;49531;-34.520;150.798;2023-05-16T01:38:58;2.00;;;1.90;;
63394;SDS011;49531;-34.520;150.798;2023-05-16T01:41:34;2.20;;;2.00;;
63394;SDS011;49531;-34.520;150.798;2023-05-16T01:44:29;2.15;;;1.95;;
63394;SDS011;49531;-34.520;150.798;2023-05-16T01:47:03;2.20;;;2.00;;
63394;SDS011;49531;-34.520;150.798;2023-05-16T01:49:46;2.03;;;1.90;;
63394;SDS011;49531;-34.520;150.798;2023-05-16T01:52:26;2.08;;;1.90;;
63394;SDS011;49531;-34.520;150.798;2023-05-16T01:55:09;2.10;;;1.90;;
63394;SDS011;49531;-34.520;150.798;2023-05-16T01:57:41;2.17;;;2.00;;
63394;SDS011;49531;-34.520;150.798;2023-05-16T02:00:09;3.33;;;1.90;;
63394;SDS011;49531;-34.520;150.798;2023-05-16T02:02:37;3.38;;;2.00;;
63394;SDS011;49531;-34.520;150.798;2023-05-16T02:05:04;2.20;;;2.00;;
63394;SDS011;49531;-34.520;150.798;2023-05-16T02:07:32;1.80;;;1.70;;
63394;SDS011;49531;-34.520;150.798;2023-05-16T02:09:59;5.38;;;1.90;;
63394;SDS011;49531;-34.520;150.798;2023-05-16T02:12:26;2.30;;;2.10;;
63394;SDS011;49531;-34.520;150.798;2023-05-16T02:14:53;2.08;;;1.88;;
63394;SDS011;49531;-34.520;150.798;2023-05-16T02:17:23;2.08;;;1.88;;
63394;SDS011;49531;-34.520;150.798;2023-05-16T02:19:51;2.30;;;2.10;;
63394;SDS011;49531;-34.520;150.798;2023-05-16T02:22:18;2.80;;;1.90;;
63394;SDS011;49531;-34.520;150.798;2023-05-16T02:24:45;3.15;;;2.10;;
63394;SDS011;49531;-34.520;150.798;2023-05-16T02:27:13;2.20;;;2.00;;
63394;SDS011;49531;-34.520;150.798;2023-05-16T02:29:40;2.50;;;1.90;;
63394;SDS011;49531;-34.520;150.798;2023-05-16T02:32:07;2.10;;;1.90;;
63394;SDS011;49531;-34.520;150.798;2023-05-16T02:34:34;2.20;;;2.00;;
63394;SDS011;49531;-34.520;150.798;2023-05-16T02:37:01;1.90;;;1.80;;
63394;SDS011;49531;-34.520;150.798;2023-05-16T02:39:28;2.15;;;2.00;;
63394;SDS011;49531;-34.520;150.798;2023-05-16T02:41:57;2.03;;;1.83;;
63394;SDS011;49531;-34.520;150.798;2023-05-16T02:44:24;2.45;;;2.05;;
63394;SDS011;49531;-34.520;150.798;2023-05-16T02:46:51;2.05;;;1.83;;
63394;SDS011;49531;-34.520;150.798;2023-05-16T02:49:18;2.20;;;2.00;;
63394;SDS011;49531;-34.520;150.798;2023-05-16T02:51:45;2.30;;;2.10;;
63394;SDS011;49531;-34.520;150.798;2023-05-16T02:54:12;2.03;;;1.83;;
63394;SDS011;49531;-34.520;150.798;2023-05-16T02:56:40;3.05;;;2.00;;
63394;SDS011;49531;-34.520;150.798;2023-05-16T02:59:07;2.03;;;1.88;;
63394;SDS011;49531;-34.520;150.798;2023-05-16T03:01:36;2.20;;;2.00;;
63394;SDS011;49531;-34.520;150.798;2023-05-16T03:04:03;2.10;;;1.90;;
63394;SDS011;49531;-34.520;150.798;2023-05-16T03:06:30;2.03;;;1.90;;
63394;SDS011;49531;-34.520;150.798;2023-05-16T03:08:57;2.20;;;2.00;;
63394;SDS011;49531;-34.520;150.798;2023-05-16T03:11:25;2.33;;;2.00;;
63394;SDS011;49531;-34.520;150.798;2023-05-16T03:13:53;2.13;;;1.92;;
63394;SDS011;49531;-34.520;150.798;2023-05-16T03:16:20;2.15;;;1.95;;
63394;SDS011;49531;-34.520;150.798;2023-05-16T03:18:47;2.10;;;1.90;;
63394;SDS011;49531;-34.520;150.798;2023-05-16T03:21:15;2.30;;;2.10;;
63394;SDS011;49531;-34.520;150.798;2023-05-16T03:23:42;2.28;;;1.85;;
63394;SDS011;49531;-34.520;150.798;2023-05-16T03:26:09;2.00;;;1.80;;
63394;SDS011;49531;-34.520;150.798;2023-05-16T03:28:36;2.47;;;2.10;;
63394;SDS011;49531;-34.520;150.798;2023-05-16T03:31:03;2.13;;;1.90;;
63394;SDS011;49531;-34.520;150.798;2023-05-16T03:33:31;2.00;;;1.90;;
63394;SDS011;49531;-34.520;150.798;2023-05-16T03:35:58;2.00;;;1.83;;
63394;SDS011;49531;-34.520;150.798;2023-05-16T03:38:25;2.90;;;2.17;;
63394;SDS011;49531;-34.520;150.798;2023-05-16T03:40:52;2.20;;;2.00;;
63394;SDS011;49531;-34.520;150.798;2023-05-16T03:43:19;2.25;;;2.00;;
63394;SDS011;49531;-34.520;150.798;2023-05-16T03:45:46;2.08;;;1.88;;
63394;SDS011;49531;-34.520;150.798;2023-05-16T03:48:13;2.17;;;1.98;;
63394;SDS011;49531;-34.520;150.798;2023-05-16T03:50:41;2.00;;;1.80;;
63394;SDS011;49531;-34.520;150.798;2023-05-16T03:53:08;2.10;;;1.90;;
63394;SDS011;49531;-34.520;150.798;2023-05-16T03:55:36;2.20;;;2.00;;
63394;SDS011;49531;-34.520;150.798;2023-05-16T03:58:04;2.65;;;2.08;;
63394;SDS011;49531;-34.520;150.798;2023-05-16T04:00:32;2.20;;;2.00;;
63394;SDS011;49531;-34.520;150.798;2023-05-16T04:03:01;2.10;;;1.90;;
63394;SDS011;49531;-34.520;150.798;2023-05-16T04:05:28;2.20;;;2.00;;
63394;SDS011;49531;-34.520;150.798;2023-05-16T04:07:56;2.33;;;2.10;;
63394;SDS011;49531;-34.520;150.798;2023-05-16T04:10:23;4.35;;;2.28;;
63394;SDS011;49531;-34.520;150.798;2023-05-16T04:12:50;2.15;;;1.95;;
63394;SDS011;49531;-34.520;150.798;2023-05-16T04:15:17;2.17;;;1.98;;
63394;SDS011;49531;-34.520;150.798;2023-05-16T04:17:44;2.20;;;2.00;;
63394;SDS011;49531;-34.520;150.798;2023-05-16T04:20:11;2.15;;;2.00;;
63394;SDS011;49531;-34.520;150.798;2023-05-16T04:22:39;2.20;;;2.00;;
63394;SDS011;49531;-34.520;150.798;2023-05-16T04:25:07;2.30;;;2.10;;
63394;SDS011;49531;-34.520;150.798;2023-05-16T04:27:35;2.22;;;2.00;;
63394;SDS011;49531;-34.520;150.798;2023-05-16T04:30:03;2.20;;;2.00;;
63394;SDS011;49531;-34.520;150.798;2023-05-16T04:32:30;2.70;;;2.10;;
63394;SDS011;49531;-34.520;150.798;2023-05-16T04:34:59;2.65;;;2.13;;
63394;SDS011;49531;-34.520;150.798;2023-05-16T04:37:26;3.55;;;2.10;;
63394;SDS011;49531;-34.520;150.798;2023-05-16T04:39:54;3.67;;;2.17;;
63394;SDS011;49531;-34.520;150.798;2023-05-16T04:42:21;2.35;;;2.10;;
63394;SDS011;49531;-34.520;150.798;2023-05-16T04:44:48;3.55;;;2.15;;
63394;SDS011;49531;-34.520;150.798;2023-05-16T04:47:15;2.88;;;2.20;;
63394;SDS011;49531;-34.520;150.798;2023-05-16T04:49:43;2.80;;;2.10;;
63394;SDS011;49531;-34.520;150.798;2023-05-16T04:52:10;2.40;;;2.00;;
63394;SDS011;49531;-34.520;150.798;2023-05-16T04:54:37;2.63;;;2.05;;
63394;SDS011;49531;-34.520;150.798;2023-05-16T04:57:04;2.30;;;2.10;;
63394;SDS011;49531;-34.520;150.798;2023-05-16T04:59:32;2.30;;;2.10;;
63394;SDS011;49531;-34.520;150.798;2023-05-16T05:02:00;3.03;;;2.35;;
63394;SDS011;49531;-34.520;150.798;2023-05-16T05:04:27;2.40;;;2.10;;
63394;SDS011;49531;-34.520;150.798;2023-05-16T05:06:54;2.38;;;2.17;;
63394;SDS011;49531;-34.520;150.798;2023-05-16T05:09:21;2.53;;;2.20;;
63394;SDS011;49531;-34.520;150.798;2023-05-16T05:11:48;2.35;;;2.10;;
63394;SDS011;49531;-34.520;150.798;2023-05-16T05:14:15;2.42;;;2.22;;
63394;SDS011;49531;-34.520;150.798;2023-05-16T05:16:42;3.95;;;2.13;;
63394;SDS011;49531;-34.520;150.798;2023-05-16T05:19:09;2.30;;;2.10;;
63394;SDS011;49531;-34.520;150.798;2023-05-16T05:21:37;2.35;;;2.13;;
63394;SDS011;49531;-34.520;150.798;2023-05-16T05:24:05;2.30;;;2.10;;
63394;SDS011;49531;-34.520;150.798;2023-05-16T05:26:32;1.95;;;1.85;;
63394;SDS011;49531;-34.520;150.798;2023-05-16T05:28:59;2.40;;;2.17;;
63394;SDS011;49531;-34.520;150.798;2023-05-16T05:31:26;2.25;;;2.03;;
63394;SDS011;49531;-34.520;150.798;2023-05-16T05:33:53;3.90;;;2.08;;
63394;SDS011;49531;-34.520;150.798;2023-05-16T05:36:21;2.78;;;2.20;;
63394;SDS011;49531;-34.520;150.798;2023-05-16T05:38:48;2.42;;;2.22;;
63394;SDS011;49531;-34.520;150.798;2023-05-16T05:41:15;2.45;;;2.03;;
63394;SDS011;49531;-34.520;150.798;2023-05-16T05:43:42;3.83;;;2.55;;
63394;SDS011;49531;-34.520;150.798;2023-05-16T05:46:09;6.28;;;2.20;;
63394;SDS011;49531;-34.520;150.798;2023-05-16T05:48:36;2.60;;;2.13;;
63394;SDS011;49531;-34.520;150.798;2023-05-16T05:51:04;3.22;;;2.30;;
63394;SDS011;49531;-34.520;150.798;2023-05-16T05:53:31;9.10;;;2.25;;
63394;SDS011;49531;-34.520;150.798;2023-05-16T05:55:59;4.45;;;2.30;;
63394;SDS011;49531;-34.520;150.798;2023-05-16T05:58:26;8.10;;;2.05;;
63394;SDS011;49531;-34.520;150.798;2023-05-16T06:00:53;8.55;;;2.30;;
63394;SDS011;49531;-34.520;150.798;2023-05-16T06:03:21;3.25;;;2.10;;
63394;SDS011;49531;-34.520;150.798;2023-05-16T06:05:48;3.15;;;2.17;;
63394;SDS011;49531;-34.520;150.798;2023-05-16T06:08:15;3.42;;;2.10;;
63394;SDS011;49531;-34.520;150.798;2023-05-16T06:10:42;4.82;;;2.30;;
63394;SDS011;49531;-34.520;150.798;2023-05-16T06:13:09;3.17;;;2.22;;
63394;SDS011;49531;-34.520;150.798;2023-05-16T06:15:36;3.63;;;2.30;;
63394;SDS011;49531;-34.520;150.798;2023-05-16T06:18:03;3.35;;;2.13;;
63394;SDS011;49531;-34.520;150.798;2023-05-16T06:20:30;3.95;;;2.00;;
63394;SDS011;49531;-34.520;150.798;2023-05-16T06:22:57;6.13;;;2.15;;
63394;SDS011;49531;-34.520;150.798;2023-05-16T06:25:25;4.28;;;2.00;;
63394;SDS011;49531;-34.520;150.798;2023-05-16T06:27:52;4.05;;;2.05;;
63394;SDS011;49531;-34.520;150.798;2023-05-16T06:30:19;24.85;;;2.55;;
63394;SDS011;49531;-34.520;150.798;2023-05-16T06:32:46;12.43;;;6.47;;
63394;SDS011;49531;-34.520;150.798;2023-05-16T06:35:13;14.65;;;9.80;;
63394;SDS011;49531;-34.520;150.798;2023-05-16T06:37:41;21.20;;;16.08;;
63394;SDS011;49531;-34.520;150.798;2023-05-16T06:40:08;56.72;;;17.33;;
63394;SDS011;49531;-34.520;150.798;2023-05-16T06:42:36;95.05;;;15.95;;
63394;SDS011;49531;-34.520;150.798;2023-05-16T06:45:03;69.20;;;15.15;;
63394;SDS011;49531;-34.520;150.798;2023-05-16T06:47:31;65.18;;;14.27;;
63394;SDS011;49531;-34.520;150.798;2023-05-16T06:49:58;45.60;;;13.98;;
63394;SDS011;49531;-34.520;150.798;2023-05-16T06:52:25;41.65;;;13.20;;
63394;SDS011;49531;-34.520;150.798;2023-05-16T06:54:52;40.17;;;12.63;;
63394;SDS011;49531;-34.520;150.798;2023-05-16T06:57:20;37.67;;;12.27;;
63394;SDS011;49531;-34.520;150.798;2023-05-16T06:59:47;31.00;;;11.73;;
63394;SDS011;49531;-34.520;150.798;2023-05-16T07:02:14;32.83;;;10.57;;
63394;SDS011;49531;-34.520;150.798;2023-05-16T07:04:42;36.45;;;10.52;;
63394;SDS011;49531;-34.520;150.798;2023-05-16T07:07:09;30.98;;;9.57;;
63394;SDS011;49531;-34.520;150.798;2023-05-16T07:09:36;29.33;;;9.68;;
63394;SDS011;49531;-34.520;150.798;2023-05-16T07:12:03;29.63;;;9.82;;
63394;SDS011;49531;-34.520;150.798;2023-05-16T07:14:31;28.55;;;7.88;;
63394;SDS011;49531;-34.520;150.798;2023-05-16T07:16:58;18.90;;;7.18;;
63394;SDS011;49531;-34.520;150.798;2023-05-16T07:19:25;16.95;;;6.80;;
63394;SDS011;49531;-34.520;150.798;2023-05-16T07:21:52;15.38;;;6.53;;
63394;SDS011;49531;-34.520;150.798;2023-05-16T07:24:19;20.10;;;6.28;;
63394;SDS011;49531;-34.520;150.798;2023-05-16T07:26:47;8.32;;;4.35;;
63394;SDS011;49531;-34.520;150.798;2023-05-16T07:29:14;9.48;;;4.45;;
63394;SDS011;49531;-34.520;150.798;2023-05-16T07:31:41;12.07;;;5.43;;
63394;SDS011;49531;-34.520;150.798;2023-05-16T07:34:08;12.27;;;5.00;;
63394;SDS011;49531;-34.520;150.798;2023-05-16T07:36:37;9.98;;;5.00;;
63394;SDS011;49531;-34.520;150.798;2023-05-16T07:39:04;7.28;;;4.45;;
63394;SDS011;49531;-34.520;150.798;2023-05-16T07:41:31;10.55;;;4.40;;
63394;SDS011;49531;-34.520;150.798;2023-05-16T07:43:58;9.63;;;4.30;;
63394;SDS011;49531;-34.520;150.798;2023-05-16T07:46:25;7.25;;;4.10;;
63394;SDS011;49531;-34.520;150.798;2023-05-16T07:48:52;7.10;;;4.05;;
63394;SDS011;49531;-34.520;150.798;2023-05-16T07:51:19;7.10;;;3.90;;
63394;SDS011;49531;-34.520;150.798;2023-05-16T07:53:49;5.47;;;3.70;;
63394;SDS011;49531;-34.520;150.798;2023-05-16T07:56:16;6.32;;;3.90;;
63394;SDS011;49531;-34.520;150.798;2023-05-16T07:58:44;5.20;;;3.50;;
63394;SDS011;49531;-34.520;150.798;2023-05-16T08:01:13;4.82;;;3.50;;
63394;SDS011;49531;-34.520;150.798;2023-05-16T08:03:42;4.72;;;3.38;;
63394;SDS011;49531;-34.520;150.798;2023-05-16T08:06:09;4.82;;;3.45;;
63394;SDS011;49531;-34.520;150.798;2023-05-16T08:08:35;5.30;;;3.38;;
63394;SDS011;49531;-34.520;150.798;2023-05-16T08:11:03;4.53;;;3.30;;
63394;SDS011;49531;-34.520;150.798;2023-05-16T08:13:30;5.88;;;3.50;;
63394;SDS011;49531;-34.520;150.798;2023-05-16T08:15:57;4.13;;;3.20;;
63394;SDS011;49531;-34.520;150.798;2023-05-16T08:18:24;3.70;;;3.00;;
63394;SDS011;49531;-34.520;150.798;2023-05-16T08:20:51;4.10;;;3.00;;
63394;SDS011;49531;-34.520;150.798;2023-05-16T08:23:18;5.07;;;3.08;;
63394;SDS011;49531;-34.520;150.798;2023-05-16T08:25:45;6.18;;;3.30;;
63394;SDS011;49531;-34.520;150.798;2023-05-16T08:28:13;3.78;;;3.03;;
63394;SDS011;49531;-34.520;150.798;2023-05-16T08:30:41;5.30;;;3.20;;
63394;SDS011;49531;-34.520;150.798;2023-05-16T08:33:08;4.78;;;3.22;;
63394;SDS011;49531;-34.520;150.798;2023-05-16T08:35:35;3.88;;;3.17;;
63394;SDS011;49531;-34.520;150.798;2023-05-16T08:38:05;5.45;;;2.97;;
63394;SDS011;49531;-34.520;150.798;2023-05-16T08:40:32;4.93;;;3.20;;
63394;SDS011;49531;-34.520;150.798;2023-05-16T08:43:00;4.72;;;3.05;;
63394;SDS011;49531;-34.520;150.798;2023-05-16T08:45:27;3.45;;;2.92;;
63394;SDS011;49531;-34.520;150.798;2023-05-16T08:47:56;3.35;;;2.75;;
63394;SDS011;49531;-34.520;150.798;2023-05-16T08:50:28;4.65;;;2.90;;
63394;SDS011;49531;-34.520;150.798;2023-05-16T08:52:57;3.80;;;3.05;;
63394;SDS011;49531;-34.520;150.798;2023-05-16T08:55:31;3.45;;;3.10;;
63394;SDS011;49531;-34.520;150.798;2023-05-16T08:58:00;3.58;;;2.88;;
63394;SDS011;49531;-34.520;150.798;2023-05-16T09:00:28;4.38;;;2.90;;
63394;SDS011;49531;-34.520;150.798;2023-05-16T09:02:56;3.10;;;2.80;;
63394;SDS011;49531;-34.520;150.798;2023-05-16T09:05:24;3.45;;;2.60;;
63394;SDS011;49531;-34.520;150.798;2023-05-16T09:07:52;4.03;;;2.70;;
63394;SDS011;49531;-34.520;150.798;2023-05-16T09:10:19;3.50;;;2.80;;
63394;SDS011;49531;-34.520;150.798;2023-05-16T09:12:46;4.28;;;2.90;;
63394;SDS011;49531;-34.520;150.798;2023-05-16T09:15:13;4.00;;;2.95;;
63394;SDS011;49531;-34.520;150.798;2023-05-16T09:17:44;3.35;;;2.90;;
63394;SDS011;49531;-34.520;150.798;2023-05-16T09:20:13;3.63;;;2.85;;
63394;SDS011;49531;-34.520;150.798;2023-05-16T09:22:49;3.85;;;3.00;;
63394;SDS011;49531;-34.520;150.798;2023-05-16T09:25:21;3.35;;;2.70;;
63394;SDS011;49531;-34.520;150.798;2023-05-16T09:27:54;3.97;;;2.78;;
63394;SDS011;49531;-34.520;150.798;2023-05-16T09:30:26;5.32;;;3.15;;
63394;SDS011;49531;-34.520;150.798;2023-05-16T09:32:54;4.05;;;2.90;;
63394;SDS011;49531;-34.520;150.798;2023-05-16T09:35:22;4.70;;;2.55;;
63394;SDS011;49531;-34.520;150.798;2023-05-16T09:37:49;4.72;;;2.90;;
63394;SDS011;49531;-34.520;150.798;2023-05-16T09:40:19;4.35;;;2.80;;
63394;SDS011;49531;-34.520;150.798;2023-05-16T09:42:53;5.65;;;2.70;;
63394;SDS011;49531;-34.520;150.798;2023-05-16T09:45:29;3.78;;;2.70;;
63394;SDS011;49531;-34.520;150.798;2023-05-16T09:48:01;4.70;;;3.00;;
63394;SDS011;49531;-34.520;150.798;2023-05-16T09:50:33;3.67;;;2.92;;
63394;SDS011;49531;-34.520;150.798;2023-05-16T09:53:02;4.20;;;2.80;;
63394;SDS011;49531;-34.520;150.798;2023-05-16T09:55:30;4.28;;;2.67;;
63394;SDS011;49531;-34.520;150.798;2023-05-16T09:57:57;4.78;;;2.88;;
63394;SDS011;49531;-34.520;150.798;2023-05-16T10:00:29;4.45;;;2.88;;
63394;SDS011;49531;-34.520;150.798;2023-05-16T10:02:57;5.70;;;2.70;;
63394;SDS011;49531;-34.520;150.798;2023-05-16T10:05:26;3.65;;;2.70;;
63394;SDS011;49531;-34.520;150.798;2023-05-16T10:07:54;4.40;;;2.63;;
63394;SDS011;49531;-34.520;150.798;2023-05-16T10:10:22;4.05;;;2.60;;
63394;SDS011;49531;-34.520;150.798;2023-05-16T10:12:50;4.70;;;3.05;;
63394;SDS011;49531;-34.520;150.798;2023-05-16T10:15:18;4.72;;;3.00;;
63394;SDS011;49531;-34.520;150.798;2023-05-16T10:17:48;3.35;;;2.70;;
63394;SDS011;49531;-34.520;150.798;2023-05-16T10:20:18;3.75;;;2.70;;
63394;SDS011;49531;-34.520;150.798;2023-05-16T10:22:47;4.57;;;2.60;;
63394;SDS011;49531;-34.520;150.798;2023-05-16T10:27:54;6.82;;;2.75;;
63394;SDS011;49531;-34.520;150.798;2023-05-16T10:30:23;3.47;;;2.70;;
63394;SDS011;49531;-34.520;150.798;2023-05-16T10:32:51;7.57;;;2.70;;
63394;SDS011;49531;-34.520;150.798;2023-05-16T10:35:20;3.70;;;2.60;;
63394;SDS011;49531;-34.520;150.798;2023-05-16T10:37:48;3.67;;;2.60;;
63394;SDS011;49531;-34.520;150.798;2023-05-16T10:40:17;3.88;;;2.70;;
63394;SDS011;49531;-34.520;150.798;2023-05-16T10:42:56;3.17;;;2.60;;
63394;SDS011;49531;-34.520;150.798;2023-05-16T10:45:25;3.92;;;2.40;;
63394;SDS011;49531;-34.520;150.798;2023-05-16T10:47:54;3.33;;;2.50;;
63394;SDS011;49531;-34.520;150.798;2023-05-16T10:50:30;3.72;;;2.42;;
63394;SDS011;49531;-34.520;150.798;2023-05-16T10:53:36;4.03;;;2.70;;
63394;SDS011;49531;-34.520;150.798;2023-05-16T10:56:05;3.03;;;2.30;;
63394;SDS011;49531;-34.520;150.798;2023-05-16T10:58:40;2.92;;;2.50;;
63394;SDS011;49531;-34.520;150.798;2023-05-16T11:03:59;3.60;;;2.50;;
63394;SDS011;49531;-34.520;150.798;2023-05-16T11:06:28;3.10;;;2.50;;
63394;SDS011;49531;-34.520;150.798;2023-05-16T11:09:03;3.92;;;2.60;;
63394;SDS011;49531;-34.520;150.798;2023-05-16T11:11:53;5.00;;;2.63;;
63394;SDS011;49531;-34.520;150.798;2023-05-16T11:14:25;4.88;;;2.60;;
63394;SDS011;49531;-34.520;150.798;2023-05-16T11:17:07;5.25;;;2.88;;
63394;SDS011;49531;-34.520;150.798;2023-05-16T11:19:40;4.57;;;2.80;;
63394;SDS011;49531;-34.520;150.798;2023-05-16T11:22:23;5.20;;;2.50;;
63394;SDS011;49531;-34.520;150.798;2023-05-16T11:24:56;4.70;;;2.75;;
63394;SDS011;49531;-34.520;150.798;2023-05-16T11:27:30;4.53;;;2.72;;
63394;SDS011;49531;-34.520;150.798;2023-05-16T11:30:15;4.63;;;2.42;;
63394;SDS011;49531;-34.520;150.798;2023-05-16T11:32:44;4.22;;;2.55;;
63394;SDS011;49531;-34.520;150.798;2023-05-16T11:35:13;5.32;;;2.55;;
63394;SDS011;49531;-34.520;150.798;2023-05-16T11:37:42;4.20;;;2.53;;
63394;SDS011;49531;-34.520;150.798;2023-05-16T11:40:12;6.93;;;2.50;;
63394;SDS011;49531;-34.520;150.798;2023-05-16T11:42:43;3.25;;;2.20;;
63394;SDS011;49531;-34.520;150.798;2023-05-16T11:45:14;3.47;;;2.00;;
63394;SDS011;49531;-34.520;150.798;2023-05-16T11:47:43;4.43;;;2.20;;
63394;SDS011;49531;-34.520;150.798;2023-05-16T11:50:13;3.72;;;1.92;;
63394;SDS011;49531;-34.520;150.798;2023-05-16T11:52:42;4.15;;;2.20;;
63394;SDS011;49531;-34.520;150.798;2023-05-16T11:55:10;3.80;;;2.20;;
63394;SDS011;49531;-34.520;150.798;2023-05-16T11:57:39;3.33;;;2.17;;
63394;SDS011;49531;-34.520;150.798;2023-05-16T12:00:13;2.88;;;2.00;;
63394;SDS011;49531;-34.520;150.798;2023-05-16T12:02:41;3.33;;;1.92;;
63394;SDS011;49531;-34.520;150.798;2023-05-16T12:05:10;2.97;;;1.80;;
63394;SDS011;49531;-34.520;150.798;2023-05-16T12:07:37;3.55;;;1.88;;
63394;SDS011;49531;-34.520;150.798;2023-05-16T12:10:05;2.72;;;1.80;;
63394;SDS011;49531;-34.520;150.798;2023-05-16T12:12:34;4.10;;;1.90;;
63394;SDS011;49531;-34.520;150.798;2023-05-16T12:15:03;3.22;;;1.88;;
63394;SDS011;49531;-34.520;150.798;2023-05-16T12:17:33;2.53;;;1.80;;
63394;SDS011;49531;-34.520;150.798;2023-05-16T12:20:01;4.97;;;1.90;;
63394;SDS011;49531;-34.520;150.798;2023-05-16T12:22:31;3.28;;;1.90;;
63394;SDS011;49531;-34.520;150.798;2023-05-16T12:24:59;1.95;;;1.52;;
63394;SDS011;49531;-34.520;150.798;2023-05-16T12:27:45;1.77;;;1.42;;
63394;SDS011;49531;-34.520;150.798;2023-05-16T12:30:12;2.30;;;1.50;;
63394;SDS011;49531;-34.520;150.798;2023-05-16T12:32:43;2.63;;;1.55;;
63394;SDS011;49531;-34.520;150.798;2023-05-16T12:35:11;3.20;;;1.55;;
63394;SDS011;49531;-34.520;150.798;2023-05-16T12:37:38;2.10;;;1.30;;
63394;SDS011;49531;-34.520;150.798;2023-05-16T12:40:08;2.70;;;1.42;;
63394;SDS011;49531;-34.520;150.798;2023-05-16T12:42:38;2.72;;;1.45;;
63394;SDS011;49531;-34.520;150.798;2023-05-16T12:45:13;2.40;;;1.30;;
63394;SDS011;49531;-34.520;150.798;2023-05-16T12:47:41;2.58;;;1.35;;
63394;SDS011;49531;-34.520;150.798;2023-05-16T12:50:10;2.60;;;1.10;;
63394;SDS011;49531;-34.520;150.798;2023-05-16T12:52:46;1.65;;;1.00;;
63394;SDS011;49531;-34.520;150.798;2023-05-16T12:55:15;2.00;;;1.10;;
63394;SDS011;49531;-34.520;150.798;2023-05-16T12:57:43;3.92;;;1.20;;
63394;SDS011;49531;-34.520;150.798;2023-05-16T13:00:13;3.35;;;1.30;;
63394;SDS011;49531;-34.520;150.798;2023-05-16T13:02:43;2.38;;;1.13;;
63394;SDS011;49531;-34.520;150.798;2023-05-16T13:05:12;2.00;;;1.20;;
63394;SDS011;49531;-34.520;150.798;2023-05-16T13:07:40;3.17;;;1.10;;
63394;SDS011;49531;-34.520;150.798;2023-05-16T13:10:07;2.75;;;1.08;;
63394;SDS011;49531;-34.520;150.798;2023-05-16T13:12:36;1.95;;;1.02;;
63394;SDS011;49531;-34.520;150.798;2023-05-16T13:15:04;4.90;;;1.20;;
63394;SDS011;49531;-34.520;150.798;2023-05-16T13:17:34;3.25;;;1.35;;
63394;SDS011;49531;-34.520;150.798;2023-05-16T13:20:02;3.63;;;1.00;;
63394;SDS011;49531;-34.520;150.798;2023-05-16T13:22:35;3.17;;;1.27;;
63394;SDS011;49531;-34.520;150.798;2023-05-16T13:25:03;3.60;;;1.20;;
63394;SDS011;49531;-34.520;150.798;2023-05-16T13:27:30;3.25;;;1.10;;
63394;SDS011;49531;-34.520;150.798;2023-05-16T13:29:58;4.95;;;1.30;;
63394;SDS011;49531;-34.520;150.798;2023-05-16T13:32:26;3.33;;;1.00;;
63394;SDS011;49531;-34.520;150.798;2023-05-16T13:34:53;8.15;;;1.63;;
63394;SDS011;49531;-34.520;150.798;2023-05-16T13:37:21;3.63;;;1.15;;
63394;SDS011;49531;-34.520;150.798;2023-05-16T13:39:49;2.33;;;1.08;;
63394;SDS011;49531;-34.520;150.798;2023-05-16T13:42:19;5.10;;;1.30;;
63394;SDS011;49531;-34.520;150.798;2023-05-16T13:44:46;3.80;;;1.30;;
63394;SDS011;49531;-34.520;150.798;2023-05-16T13:47:14;3.05;;;1.20;;
63394;SDS011;49531;-34.520;150.798;2023-05-16T13:49:41;4.70;;;1.30;;
63394;SDS011;49531;-34.520;150.798;2023-05-16T13:52:08;4.45;;;1.20;;
63394;SDS011;49531;-34.520;150.798;2023-05-16T13:54:36;2.83;;;1.02;;
63394;SDS011;49531;-34.520;150.798;2023-05-16T13:57:04;4.72;;;1.30;;
63394;SDS011;49531;-34.520;150.798;2023-05-16T13:59:32;6.35;;;1.40;;
63394;SDS011;49531;-34.520;150.798;2023-05-16T14:01:59;5.82;;;1.52;;
63394;SDS011;49531;-34.520;150.798;2023-05-16T14:04:26;5.32;;;1.27;;
63394;SDS011;49531;-34.520;150.798;2023-05-16T14:06:53;5.03;;;1.40;;
63394;SDS011;49531;-34.520;150.798;2023-05-16T14:09:21;4.35;;;1.10;;
63394;SDS011;49531;-34.520;150.798;2023-05-16T14:11:48;6.22;;;1.45;;
63394;SDS011;49531;-34.520;150.798;2023-05-16T14:14:15;5.20;;;1.60;;
63394;SDS011;49531;-34.520;150.798;2023-05-16T14:16:42;3.65;;;1.25;;
63394;SDS011;49531;-34.520;150.798;2023-05-16T14:19:10;3.67;;;1.35;;
63394;SDS011;49531;-34.520;150.798;2023-05-16T14:21:38;5.65;;;1.48;;
63394;SDS011;49531;-34.520;150.798;2023-05-16T14:24:06;5.28;;;1.30;;
63394;SDS011;49531;-34.520;150.798;2023-05-16T14:26:33;4.53;;;1.40;;